createdAt,value
2018-03-09T00:00:18.873Z,0
2018-03-09T00:01:27.700Z,0
2018-03-09T00:02:36.626Z,0
2018-03-09T00:03:45.451Z,0
2018-03-09T00:04:54.280Z,0
2018-03-09T00:06:03.106Z,0
2018-03-09T00:07:11.933Z,0
2018-03-09T00:08:21.043Z,0
2018-03-09T00:09:30.145Z,0
2018-03-09T00:10:38.975Z,0
2018-03-09T00:11:47.805Z,0
2018-03-09T00:12:56.632Z,0
2018-03-09T00:14:05.661Z,0
2018-03-09T00:15:14.486Z,0
2018-03-09T00:16:23.314Z,0
2018-03-09T00:17:32.142Z,0
2018-03-09T00:18:41.250Z,0
2018-03-09T00:19:50.505Z,0
2018-03-09T00:20:59.331Z,0
2018-03-09T00:22:08.161Z,0
2018-03-09T00:23:16.990Z,0
2018-03-09T00:24:25.833Z,0
2018-03-09T00:25:35.034Z,0
2018-03-09T00:26:44.142Z,0
2018-03-09T00:27:52.971Z,0
2018-03-09T00:29:01.833Z,0
2018-03-09T00:30:10.624Z,0
2018-03-09T00:31:19.454Z,0
2018-03-09T00:32:28.282Z,0
2018-03-09T00:33:37.110Z,0
2018-03-09T00:34:45.936Z,0
2018-03-09T00:35:54.764Z,0
2018-03-09T00:37:03.596Z,0
2018-03-09T00:38:12.422Z,0
2018-03-09T00:39:21.256Z,0
2018-03-09T00:40:30.078Z,0
2018-03-09T00:41:38.904Z,0
2018-03-09T00:42:47.732Z,0
2018-03-09T00:43:56.558Z,0
2018-03-09T00:45:05.392Z,0
2018-03-09T00:46:14.497Z,0
2018-03-09T00:47:23.324Z,0
2018-03-09T00:48:32.148Z,0
2018-03-09T00:49:40.978Z,0
2018-03-09T00:50:49.807Z,0
2018-03-09T00:51:58.945Z,0
2018-03-09T00:53:07.735Z,0
2018-03-09T00:54:16.614Z,0
2018-03-09T00:55:25.486Z,0
2018-03-09T00:56:34.267Z,0
2018-03-09T00:57:43.096Z,0
2018-03-09T00:58:51.923Z,0
2018-03-09T01:00:00.756Z,0
2018-03-09T01:01:09.856Z,0
2018-03-09T01:02:18.683Z,0
2018-03-09T01:03:27.510Z,0
2018-03-09T01:04:36.338Z,0
2018-03-09T01:05:45.167Z,0
2018-03-09T01:06:53.994Z,0
2018-03-09T01:08:02.822Z,0
2018-03-09T01:09:11.649Z,0
2018-03-09T01:10:20.475Z,0
2018-03-09T01:11:29.355Z,0
2018-03-09T01:12:38.179Z,0
2018-03-09T01:13:47.008Z,0
2018-03-09T01:14:56.672Z,0
2018-03-09T01:16:05.503Z,0
2018-03-09T01:17:14.628Z,0
2018-03-09T01:18:23.453Z,0
2018-03-09T01:19:32.281Z,0
2018-03-09T01:20:41.113Z,0
2018-03-09T01:21:49.938Z,0
2018-03-09T01:22:59.017Z,0
2018-03-09T01:24:08.124Z,0
2018-03-09T01:25:16.951Z,0
2018-03-09T01:26:26.060Z,0
2018-03-09T01:27:34.902Z,0
2018-03-09T01:28:43.714Z,0
2018-03-09T01:29:52.542Z,0
2018-03-09T01:31:01.368Z,0
2018-03-09T01:32:10.517Z,0
2018-03-09T01:33:19.339Z,0
2018-03-09T01:34:28.323Z,0
2018-03-09T01:35:37.156Z,0
2018-03-09T01:36:45.985Z,0
2018-03-09T01:37:54.813Z,0
2018-03-09T01:39:03.647Z,0
2018-03-09T01:40:12.466Z,0
2018-03-09T01:41:21.290Z,0
2018-03-09T01:42:30.121Z,0
2018-03-09T01:43:39.230Z,0
2018-03-09T01:44:48.330Z,0
2018-03-09T01:45:57.160Z,0
2018-03-09T01:47:05.985Z,0
2018-03-09T01:48:14.813Z,0
2018-03-09T01:49:23.643Z,0
2018-03-09T01:50:32.467Z,0
2018-03-09T01:51:41.596Z,0
2018-03-09T01:52:50.699Z,0
2018-03-09T01:53:59.525Z,0
2018-03-09T01:55:08.354Z,0
2018-03-09T01:56:17.459Z,0
2018-03-09T01:57:26.385Z,0
2018-03-09T01:58:35.214Z,0
2018-03-09T01:59:44.039Z,0
2018-03-09T02:00:52.871Z,0
2018-03-09T02:02:01.699Z,0
2018-03-09T02:03:10.579Z,0
2018-03-09T02:04:19.683Z,0
2018-03-09T02:05:28.509Z,0
2018-03-09T02:06:37.619Z,0
2018-03-09T02:07:46.448Z,0
2018-03-09T02:08:55.479Z,0
2018-03-09T02:10:04.307Z,0
2018-03-09T02:11:13.135Z,0
2018-03-09T02:12:21.965Z,0
2018-03-09T02:13:30.793Z,0
2018-03-09T02:14:40.104Z,0
2018-03-09T02:15:48.942Z,0
2018-03-09T02:16:57.769Z,0
2018-03-09T02:18:06.596Z,0
2018-03-09T02:19:15.425Z,0
2018-03-09T02:20:24.731Z,0
2018-03-09T02:21:33.834Z,0
2018-03-09T02:22:42.660Z,0
2018-03-09T02:23:51.492Z,0
2018-03-09T02:25:00.321Z,0
2018-03-09T02:26:09.301Z,0
2018-03-09T02:27:18.407Z,0
2018-03-09T02:28:27.234Z,0
2018-03-09T02:29:36.065Z,0
2018-03-09T02:30:44.892Z,0
2018-03-09T02:31:53.768Z,0
2018-03-09T02:33:02.600Z,0
2018-03-09T02:34:11.424Z,0
2018-03-09T02:35:20.252Z,0
2018-03-09T02:36:29.083Z,0
2018-03-09T02:37:37.914Z,0
2018-03-09T02:38:46.737Z,0
2018-03-09T02:39:55.566Z,0
2018-03-09T02:41:04.399Z,0
2018-03-09T02:42:13.228Z,0
2018-03-09T02:43:22.118Z,0
2018-03-09T02:44:31.225Z,0
2018-03-09T02:45:40.057Z,0
2018-03-09T02:46:48.888Z,0
2018-03-09T02:47:57.719Z,0
2018-03-09T02:49:06.552Z,0
2018-03-09T02:50:15.660Z,0
2018-03-09T02:51:24.488Z,0
2018-03-09T02:52:33.331Z,0
2018-03-09T02:53:42.163Z,0
2018-03-09T02:54:50.991Z,0
2018-03-09T02:55:59.821Z,0
2018-03-09T02:57:08.653Z,0
2018-03-09T02:58:17.486Z,0
2018-03-09T02:59:26.583Z,0
2018-03-09T03:00:35.513Z,0
2018-03-09T03:01:44.339Z,0
2018-03-09T03:02:53.168Z,0
2018-03-09T03:04:02.000Z,0
2018-03-09T03:05:10.833Z,0
2018-03-09T03:06:19.762Z,0
2018-03-09T03:07:28.590Z,0
2018-03-09T03:08:37.419Z,0
2018-03-09T03:09:46.247Z,0
2018-03-09T03:10:55.073Z,0
2018-03-09T03:12:04.480Z,0
2018-03-09T03:13:13.308Z,0
2018-03-09T03:14:22.139Z,0
2018-03-09T03:15:30.963Z,0
2018-03-09T03:16:39.791Z,0
2018-03-09T03:17:48.921Z,0
2018-03-09T03:18:57.754Z,0
2018-03-09T03:20:06.859Z,0
2018-03-09T03:21:15.741Z,0
2018-03-09T03:22:24.861Z,0
2018-03-09T03:23:33.774Z,0
2018-03-09T03:24:42.604Z,0
2018-03-09T03:25:51.431Z,0
2018-03-09T03:27:00.265Z,0
2018-03-09T03:28:09.367Z,0
2018-03-09T03:29:18.443Z,0
2018-03-09T03:30:27.275Z,0
2018-03-09T03:31:36.106Z,0
2018-03-09T03:32:45.209Z,0
2018-03-09T03:33:54.315Z,0
2018-03-09T03:35:03.142Z,0
2018-03-09T03:36:11.971Z,0
2018-03-09T03:37:20.799Z,0
2018-03-09T03:38:29.625Z,0
2018-03-09T03:39:38.453Z,0
2018-03-09T03:40:47.282Z,0
2018-03-09T03:41:56.111Z,0
2018-03-09T03:43:04.941Z,0
2018-03-09T03:44:14.048Z,0
2018-03-09T03:45:22.876Z,0
2018-03-09T03:46:31.754Z,0
2018-03-09T03:47:40.581Z,0
2018-03-09T03:48:49.416Z,0
2018-03-09T03:49:58.240Z,0
2018-03-09T03:51:07.066Z,0
2018-03-09T03:52:15.897Z,0
2018-03-09T03:53:24.728Z,0
2018-03-09T03:54:33.557Z,0
2018-03-09T03:55:42.384Z,0
2018-03-09T03:56:51.215Z,0
2018-03-09T03:58:00.295Z,0
2018-03-09T03:59:09.124Z,0
2018-03-09T04:00:17.952Z,0
2018-03-09T04:01:26.785Z,0
2018-03-09T04:02:35.612Z,0
2018-03-09T04:03:45.137Z,0
2018-03-09T04:04:53.965Z,0
2018-03-09T04:06:02.799Z,0
2018-03-09T04:07:11.902Z,0
2018-03-09T04:08:20.730Z,0
2018-03-09T04:09:29.607Z,0
2018-03-09T04:10:38.437Z,0
2018-03-09T04:11:47.263Z,0
2018-03-09T04:12:56.090Z,0
2018-03-09T04:14:04.918Z,0
2018-03-09T04:15:14.024Z,0
2018-03-09T04:16:22.851Z,0
2018-03-09T04:17:31.681Z,0
2018-03-09T04:18:40.507Z,0
2018-03-09T04:19:49.613Z,0
2018-03-09T04:20:59.027Z,0
2018-03-09T04:22:07.858Z,0
2018-03-09T04:23:16.960Z,0
2018-03-09T04:24:25.789Z,0
2018-03-09T04:25:34.616Z,0
2018-03-09T04:26:43.443Z,0
2018-03-09T04:27:52.273Z,0
2018-03-09T04:29:01.099Z,0
2018-03-09T04:30:09.929Z,0
2018-03-09T04:31:18.758Z,0
2018-03-09T04:32:27.635Z,0
2018-03-09T04:33:36.466Z,0
2018-03-09T04:34:45.292Z,0
2018-03-09T04:35:54.120Z,0
2018-03-09T04:37:02.950Z,0
2018-03-09T04:38:11.927Z,0
2018-03-09T04:39:20.755Z,0
2018-03-09T04:40:29.583Z,0
2018-03-09T04:41:38.412Z,0
2018-03-09T04:42:47.241Z,0
2018-03-09T04:43:56.171Z,0
2018-03-09T04:45:05.001Z,0
2018-03-09T04:46:13.829Z,0
2018-03-09T04:47:22.654Z,0
2018-03-09T04:48:32.050Z,0
2018-03-09T04:49:40.881Z,0
2018-03-09T04:50:49.710Z,0
2018-03-09T04:51:58.538Z,0
2018-03-09T04:53:07.368Z,0
2018-03-09T04:54:16.197Z,0
2018-03-09T04:55:25.025Z,0
2018-03-09T04:56:33.851Z,0
2018-03-09T04:57:42.678Z,0
2018-03-09T04:58:51.508Z,0
2018-03-09T05:00:00.335Z,0
2018-03-09T05:01:09.642Z,0
2018-03-09T05:02:18.467Z,0
2018-03-09T05:03:27.294Z,0
2018-03-09T05:04:36.123Z,0
2018-03-09T05:05:44.952Z,0
2018-03-09T05:06:54.082Z,0
2018-03-09T05:08:02.910Z,0
2018-03-09T05:09:12.023Z,0
2018-03-09T05:10:20.889Z,0
2018-03-09T05:11:29.964Z,0
2018-03-09T05:12:38.844Z,0
2018-03-09T05:13:47.675Z,0
2018-03-09T05:14:56.505Z,0
2018-03-09T05:16:05.335Z,0
2018-03-09T05:17:14.162Z,0
2018-03-09T05:18:22.992Z,0
2018-03-09T05:19:31.821Z,0
2018-03-09T05:20:40.924Z,0
2018-03-09T05:21:49.750Z,0
2018-03-09T05:22:58.580Z,0
2018-03-09T05:24:07.612Z,0
2018-03-09T05:25:16.440Z,0
2018-03-09T05:26:25.271Z,0
2018-03-09T05:27:34.097Z,0
2018-03-09T05:28:42.926Z,4
2018-03-09T05:29:51.909Z,0
2018-03-09T05:31:01.032Z,4
2018-03-09T05:32:10.415Z,0
2018-03-09T05:33:19.526Z,4
2018-03-09T05:34:28.359Z,4
2018-03-09T05:35:37.197Z,4
2018-03-09T05:36:46.026Z,4
2018-03-09T05:37:54.856Z,8
2018-03-09T05:39:03.934Z,8
2018-03-09T05:40:12.761Z,8
2018-03-09T05:41:21.917Z,8
2018-03-09T05:42:30.746Z,16
2018-03-09T05:43:39.575Z,12
2018-03-09T05:44:48.404Z,16
2018-03-09T05:45:57.237Z,20
2018-03-09T05:47:06.067Z,24
2018-03-09T05:48:14.895Z,20
2018-03-09T05:49:23.725Z,28
2018-03-09T05:50:32.561Z,32
2018-03-09T05:51:41.385Z,36
2018-03-09T05:52:50.214Z,48
2018-03-09T05:53:59.044Z,48
2018-03-09T05:55:07.873Z,48
2018-03-09T05:56:16.703Z,52
2018-03-09T05:57:25.532Z,60
2018-03-09T05:58:34.415Z,68
2018-03-09T05:59:43.517Z,80
2018-03-09T06:00:52.349Z,76
2018-03-09T06:02:01.178Z,80
2018-03-09T06:03:10.285Z,88
2018-03-09T06:04:19.415Z,104
2018-03-09T06:05:28.242Z,104
2018-03-09T06:06:37.072Z,112
2018-03-09T06:07:45.905Z,108
2018-03-09T06:08:55.013Z,108
2018-03-09T06:10:04.140Z,132
2018-03-09T06:11:12.969Z,148
2018-03-09T06:12:21.799Z,156
2018-03-09T06:13:30.903Z,188
2018-03-09T06:14:40.010Z,184
2018-03-09T06:15:48.843Z,216
2018-03-09T06:16:57.674Z,232
2018-03-09T06:18:06.503Z,252
2018-03-09T06:19:15.330Z,248
2018-03-09T06:20:24.161Z,280
2018-03-09T06:21:33.140Z,324
2018-03-09T06:22:42.249Z,344
2018-03-09T06:23:51.079Z,384
2018-03-09T06:24:59.906Z,364
2018-03-09T06:26:09.010Z,352
2018-03-09T06:27:18.272Z,404
2018-03-09T06:28:27.099Z,408
2018-03-09T06:29:35.930Z,428
2018-03-09T06:30:44.760Z,456
2018-03-09T06:31:53.592Z,516
2018-03-09T06:33:02.522Z,524
2018-03-09T06:34:11.627Z,524
2018-03-09T06:35:20.457Z,584
2018-03-09T06:36:29.289Z,628
2018-03-09T06:37:38.401Z,668
2018-03-09T06:38:47.227Z,724
2018-03-09T06:39:56.056Z,716
2018-03-09T06:41:04.992Z,732
2018-03-09T06:42:13.810Z,760
2018-03-09T06:43:22.639Z,796
2018-03-09T06:44:31.467Z,808
2018-03-09T06:45:40.297Z,840
2018-03-09T06:46:49.128Z,868
2018-03-09T06:47:57.956Z,908
2018-03-09T06:49:06.786Z,948
2018-03-09T06:50:15.769Z,928
2018-03-09T06:51:24.600Z,952
2018-03-09T06:52:33.426Z,1008
2018-03-09T06:53:42.257Z,988
2018-03-09T06:54:51.083Z,1040
2018-03-09T06:56:00.121Z,1004
2018-03-09T06:57:08.948Z,1068
2018-03-09T06:58:17.779Z,1100
2018-03-09T06:59:26.606Z,1076
2018-03-09T07:00:35.715Z,1140
2018-03-09T07:01:44.842Z,1180
2018-03-09T07:02:53.669Z,1144
2018-03-09T07:04:02.775Z,1188
2018-03-09T07:05:11.604Z,1204
2018-03-09T07:06:20.433Z,1292
2018-03-09T07:07:29.589Z,1324
2018-03-09T07:08:38.419Z,1344
2018-03-09T07:09:47.247Z,1336
2018-03-09T07:10:56.078Z,1392
2018-03-09T07:12:05.186Z,1432
2018-03-09T07:13:14.542Z,1444
2018-03-09T07:14:23.375Z,1436
2018-03-09T07:15:32.202Z,1488
2018-03-09T07:16:41.028Z,1492
2018-03-09T07:17:49.859Z,1552
2018-03-09T07:18:58.789Z,1576
2018-03-09T07:20:07.621Z,1536
2018-03-09T07:21:16.449Z,1632
2018-03-09T07:22:25.280Z,1620
2018-03-09T07:23:34.110Z,1656
2018-03-09T07:24:42.940Z,1724
2018-03-09T07:25:51.771Z,1776
2018-03-09T07:27:00.635Z,1788
2018-03-09T07:28:09.429Z,1860
2018-03-09T07:29:18.262Z,1800
2018-03-09T07:30:27.141Z,1860
2018-03-09T07:31:35.992Z,1884
2018-03-09T07:32:44.825Z,1848
2018-03-09T07:33:54.230Z,1896
2018-03-09T07:35:03.062Z,1952
2018-03-09T07:36:12.274Z,1984
2018-03-09T07:37:21.103Z,2008
2018-03-09T07:38:29.932Z,2064
2018-03-09T07:39:38.763Z,2052
2018-03-09T07:40:47.594Z,2132
2018-03-09T07:41:56.424Z,2204
2018-03-09T07:43:05.254Z,2156
2018-03-09T07:44:14.085Z,2204
2018-03-09T07:45:22.915Z,2292
2018-03-09T07:46:32.047Z,2252
2018-03-09T07:47:41.078Z,2328
2018-03-09T07:48:49.909Z,2392
2018-03-09T07:49:59.018Z,2396
2018-03-09T07:51:07.848Z,2468
2018-03-09T07:52:16.682Z,2444
2018-03-09T07:53:25.614Z,2496
2018-03-09T07:54:34.446Z,2452
2018-03-09T07:55:43.279Z,2492
2018-03-09T07:56:52.388Z,2420
2018-03-09T07:58:01.219Z,2576
2018-03-09T07:59:10.625Z,2632
2018-03-09T08:00:19.453Z,2636
2018-03-09T08:01:28.284Z,2756
2018-03-09T08:02:37.116Z,2792
2018-03-09T08:03:45.948Z,2780
2018-03-09T08:04:54.827Z,2752
2018-03-09T08:06:03.658Z,2876
2018-03-09T08:07:12.488Z,2944
2018-03-09T08:08:21.600Z,2784
2018-03-09T08:09:30.482Z,2864
2018-03-09T08:10:39.361Z,2784
2018-03-09T08:11:48.192Z,2888
2018-03-09T08:12:57.023Z,2996
2018-03-09T08:14:05.855Z,2908
2018-03-09T08:15:14.684Z,3096
2018-03-09T08:16:23.512Z,3164
2018-03-09T08:17:32.709Z,3104
2018-03-09T08:18:41.591Z,3200
2018-03-09T08:19:50.332Z,3032
2018-03-09T08:20:59.165Z,3116
2018-03-09T08:22:08.150Z,3188
2018-03-09T08:23:16.980Z,3148
2018-03-09T08:24:25.818Z,3172
2018-03-09T08:25:34.931Z,3412
2018-03-09T08:26:43.929Z,3400
2018-03-09T08:27:52.643Z,3364
2018-03-09T08:29:01.477Z,3520
2018-03-09T08:30:10.310Z,3436
2018-03-09T08:31:19.146Z,3376
2018-03-09T08:32:27.981Z,3260
2018-03-09T08:33:37.084Z,2936
2018-03-09T08:34:46.217Z,3388
2018-03-09T08:35:55.019Z,3520
2018-03-09T08:37:03.853Z,3692
2018-03-09T08:38:12.684Z,3756
2018-03-09T08:39:21.811Z,3796
2018-03-09T08:40:30.642Z,3848
2018-03-09T08:41:39.748Z,3920
2018-03-09T08:42:48.579Z,3736
2018-03-09T08:43:57.411Z,3732
2018-03-09T08:45:06.245Z,3788
2018-03-09T08:46:15.074Z,3956
2018-03-09T08:47:23.905Z,3912
2018-03-09T08:48:32.734Z,3600
2018-03-09T08:49:41.564Z,3712
2018-03-09T08:50:50.551Z,4080
2018-03-09T08:51:59.381Z,4128
2018-03-09T08:53:08.213Z,3852
2018-03-09T08:54:17.047Z,4280
2018-03-09T08:55:26.153Z,4064
2018-03-09T08:56:35.084Z,4128
2018-03-09T08:57:43.918Z,4264
2018-03-09T08:58:52.749Z,3932
2018-03-09T09:00:01.578Z,3868
2018-03-09T09:01:10.420Z,3812
2018-03-09T09:02:19.579Z,3880
2018-03-09T09:03:28.690Z,4164
2018-03-09T09:04:37.541Z,4220
2018-03-09T09:05:46.355Z,3988
2018-03-09T09:06:55.185Z,4056
2018-03-09T09:08:04.493Z,4152
2018-03-09T09:09:13.328Z,4512
2018-03-09T09:10:22.160Z,4528
2018-03-09T09:11:31.016Z,4552
2018-03-09T09:12:40.160Z,4820
2018-03-09T09:13:49.433Z,5068
2018-03-09T09:14:58.225Z,4960
2018-03-09T09:16:07.333Z,4468
2018-03-09T09:17:16.163Z,4224
2018-03-09T09:18:24.997Z,4416
2018-03-09T09:19:34.127Z,4664
2018-03-09T09:20:42.958Z,4884
2018-03-09T09:21:52.090Z,4724
2018-03-09T09:23:00.926Z,4864
2018-03-09T09:24:10.035Z,4860
2018-03-09T09:25:19.018Z,4384
2018-03-09T09:26:28.163Z,4336
2018-03-09T09:27:36.990Z,4680
2018-03-09T09:28:45.824Z,5284
2018-03-09T09:29:54.659Z,5456
2018-03-09T09:31:03.892Z,5276
2018-03-09T09:32:12.722Z,4936
2018-03-09T09:33:21.554Z,5240
2018-03-09T09:34:30.388Z,5368
2018-03-09T09:35:39.221Z,5624
2018-03-09T09:36:48.206Z,5692
2018-03-09T09:37:57.038Z,5760
2018-03-09T09:39:05.873Z,5808
2018-03-09T09:40:15.262Z,5464
2018-03-09T09:41:24.370Z,5964
2018-03-09T09:42:33.302Z,5984
2018-03-09T09:43:42.133Z,5792
2018-03-09T09:44:50.965Z,5352
2018-03-09T09:45:59.796Z,5464
2018-03-09T09:47:08.629Z,5588
2018-03-09T09:48:17.513Z,5344
2018-03-09T09:49:26.349Z,5600
2018-03-09T09:50:35.453Z,5664
2018-03-09T09:51:44.283Z,5652
2018-03-09T09:52:53.115Z,5948
2018-03-09T09:54:01.968Z,6152
2018-03-09T09:55:10.780Z,6412
2018-03-09T09:56:19.613Z,6588
2018-03-09T09:57:28.448Z,6324
2018-03-09T09:58:37.282Z,5764
2018-03-09T09:59:46.166Z,5716
2018-03-09T10:00:54.998Z,6320
2018-03-09T10:02:04.223Z,6180
2018-03-09T10:03:13.230Z,6192
2018-03-09T10:04:22.339Z,5884
2018-03-09T10:05:31.271Z,7204
2018-03-09T10:06:40.105Z,6468
2018-03-09T10:07:48.938Z,7176
2018-03-09T10:08:57.811Z,6516
2018-03-09T10:10:06.606Z,6304
2018-03-09T10:11:15.589Z,6768
2018-03-09T10:12:24.423Z,6672
2018-03-09T10:13:33.354Z,7332
2018-03-09T10:14:42.213Z,7308
2018-03-09T10:15:51.028Z,6896
2018-03-09T10:17:00.266Z,6584
2018-03-09T10:18:09.098Z,7124
2018-03-09T10:19:17.932Z,7716
2018-03-09T10:20:26.766Z,8328
2018-03-09T10:21:35.600Z,8364
2018-03-09T10:22:44.769Z,7900
2018-03-09T10:23:53.603Z,8096
2018-03-09T10:25:02.438Z,7952
2018-03-09T10:26:11.275Z,8516
2018-03-09T10:27:20.387Z,7924
2018-03-09T10:28:29.372Z,7484
2018-03-09T10:29:38.481Z,7820
2018-03-09T10:30:47.316Z,8208
2018-03-09T10:31:56.157Z,7952
2018-03-09T10:33:05.267Z,7944
2018-03-09T10:34:14.203Z,8384
2018-03-09T10:35:23.039Z,8464
2018-03-09T10:36:31.870Z,7916
2018-03-09T10:37:40.711Z,7884
2018-03-09T10:38:49.546Z,8044
2018-03-09T10:39:58.379Z,8284
2018-03-09T10:41:07.494Z,8060
2018-03-09T10:42:16.333Z,7476
2018-03-09T10:43:25.167Z,6968
2018-03-09T10:44:34.008Z,7048
2018-03-09T10:45:43.141Z,6592
2018-03-09T10:46:51.982Z,6852
2018-03-09T10:48:00.819Z,6040
2018-03-09T10:49:09.662Z,5484
2018-03-09T10:50:18.492Z,5852
2018-03-09T10:51:27.428Z,5600
2018-03-09T10:52:36.262Z,5812
2018-03-09T10:53:45.095Z,7428
2018-03-09T10:54:53.947Z,8032
2018-03-09T10:56:03.056Z,5736
2018-03-09T10:57:12.039Z,6496
2018-03-09T10:58:20.872Z,7380
2018-03-09T10:59:29.703Z,6716
2018-03-09T11:00:38.538Z,7504
2018-03-09T11:01:47.371Z,7900
2018-03-09T11:02:56.256Z,7316
2018-03-09T11:04:05.088Z,7060
2018-03-09T11:05:13.923Z,7632
2018-03-09T11:06:22.761Z,8608
2018-03-09T11:07:31.596Z,8452
2018-03-09T11:08:40.685Z,5768
2018-03-09T11:09:49.795Z,5540
2018-03-09T11:10:58.630Z,6188
2018-03-09T11:12:07.468Z,4596
2018-03-09T11:13:16.300Z,5568
2018-03-09T11:14:25.286Z,4624
2018-03-09T11:15:34.122Z,5544
2018-03-09T11:16:42.953Z,7172
2018-03-09T11:17:51.788Z,6036
2018-03-09T11:19:00.621Z,6732
2018-03-09T11:20:09.454Z,7280
2018-03-09T11:21:18.289Z,9716
2018-03-09T11:22:27.125Z,8572
2018-03-09T11:23:35.954Z,10540
2018-03-09T11:24:44.793Z,7904
2018-03-09T11:25:53.928Z,10900
2018-03-09T11:27:03.030Z,12260
2018-03-09T11:28:11.866Z,11556
2018-03-09T11:29:20.703Z,10284
2018-03-09T11:30:29.539Z,7408
2018-03-09T11:31:38.373Z,6592
2018-03-09T11:32:47.207Z,7244
2018-03-09T11:33:56.043Z,6528
2018-03-09T11:35:04.897Z,4540
2018-03-09T11:36:13.714Z,3408
2018-03-09T11:37:22.700Z,3600
2018-03-09T11:38:31.535Z,2468
2018-03-09T11:39:40.374Z,1536
2018-03-09T11:40:49.204Z,1160
2018-03-09T11:41:58.037Z,1432
2018-03-09T11:43:07.155Z,2392
2018-03-09T11:44:15.992Z,2364
2018-03-09T11:45:24.825Z,3860
2018-03-09T11:46:33.659Z,4840
2018-03-09T11:47:42.500Z,3876
2018-03-09T11:48:51.430Z,4248
2018-03-09T11:50:00.260Z,3844
2018-03-09T11:51:09.094Z,3784
2018-03-09T11:52:17.928Z,3528
2018-03-09T11:53:27.037Z,3464
2018-03-09T11:54:36.122Z,4100
2018-03-09T11:55:44.957Z,2660
2018-03-09T11:56:53.794Z,3732
2018-03-09T11:58:03.182Z,3332
2018-03-09T11:59:12.017Z,2812
2018-03-09T12:00:21.152Z,2564
2018-03-09T12:01:29.988Z,4272
2018-03-09T12:02:38.822Z,4796
2018-03-09T12:03:47.657Z,6672
2018-03-09T12:04:56.489Z,7060
2018-03-09T12:06:05.629Z,7652
2018-03-09T12:07:14.733Z,6720
2018-03-09T12:08:23.858Z,5264
2018-03-09T12:09:32.692Z,5056
2018-03-09T12:10:41.523Z,5488
2018-03-09T12:11:50.659Z,6028
2018-03-09T12:12:59.495Z,9384
2018-03-09T12:14:08.329Z,7516
2018-03-09T12:15:17.162Z,7712
2018-03-09T12:16:25.998Z,5460
2018-03-09T12:17:34.880Z,5684
2018-03-09T12:18:43.991Z,7068
2018-03-09T12:19:52.826Z,7292
2018-03-09T12:21:01.660Z,5724
2018-03-09T12:22:10.496Z,5476
2018-03-09T12:23:19.436Z,9260
2018-03-09T12:24:28.268Z,5028
2018-03-09T12:25:37.104Z,5864
2018-03-09T12:26:46.215Z,5080
2018-03-09T12:27:55.050Z,5400
2018-03-09T12:29:03.886Z,9576
2018-03-09T12:30:12.720Z,9708
2018-03-09T12:31:21.831Z,12240
2018-03-09T12:32:30.669Z,9840
2018-03-09T12:33:39.506Z,7584
2018-03-09T12:34:48.436Z,6236
2018-03-09T12:35:57.269Z,4916
2018-03-09T12:37:06.103Z,5008
2018-03-09T12:38:14.936Z,5672
2018-03-09T12:39:23.770Z,7548
2018-03-09T12:40:32.983Z,12276
2018-03-09T12:41:41.816Z,9400
2018-03-09T12:42:50.695Z,7892
2018-03-09T12:43:59.487Z,9380
2018-03-09T12:45:08.321Z,11648
2018-03-09T12:46:17.228Z,14340
2018-03-09T12:47:26.048Z,17120
2018-03-09T12:48:34.882Z,14072
2018-03-09T12:49:43.819Z,10892
2018-03-09T12:50:52.655Z,10548
2018-03-09T12:52:01.496Z,10164
2018-03-09T12:53:10.331Z,11088
2018-03-09T12:54:19.221Z,11616
2018-03-09T12:55:28.005Z,8316
2018-03-09T12:56:36.841Z,6120
2018-03-09T12:57:45.728Z,7948
2018-03-09T12:58:54.848Z,9664
2018-03-09T13:00:03.690Z,9708
2018-03-09T13:01:12.523Z,9520
2018-03-09T13:02:21.359Z,8880
2018-03-09T13:03:30.200Z,7220
2018-03-09T13:04:39.041Z,6068
2018-03-09T13:05:47.879Z,5632
2018-03-09T13:06:56.721Z,14976
2018-03-09T13:08:05.834Z,12036
2018-03-09T13:09:14.677Z,5100
2018-03-09T13:10:23.508Z,8604
2018-03-09T13:11:32.346Z,6880
2018-03-09T13:12:41.183Z,6756
2018-03-09T13:13:50.017Z,7056
2018-03-09T13:14:58.854Z,8892
2018-03-09T13:16:07.692Z,9296
2018-03-09T13:17:16.529Z,10564
2018-03-09T13:18:25.364Z,7676
2018-03-09T13:19:34.201Z,6844
2018-03-09T13:20:43.037Z,6136
2018-03-09T13:21:51.872Z,4728
2018-03-09T13:23:00.712Z,4804
2018-03-09T13:24:09.976Z,5668
2018-03-09T13:25:19.089Z,6952
2018-03-09T13:26:27.928Z,7688
2018-03-09T13:27:37.041Z,7772
2018-03-09T13:28:45.880Z,4820
2018-03-09T13:29:54.719Z,3420
2018-03-09T13:31:03.555Z,3488
2018-03-09T13:32:12.393Z,3308
2018-03-09T13:33:21.226Z,3180
2018-03-09T13:34:30.115Z,2536
2018-03-09T13:35:39.000Z,2596
2018-03-09T13:36:47.784Z,2296
2018-03-09T13:37:56.622Z,2792
2018-03-09T13:39:05.731Z,2820
2018-03-09T13:40:14.715Z,2552
2018-03-09T13:41:23.552Z,2596
2018-03-09T13:42:32.388Z,2952
2018-03-09T13:43:41.505Z,2948
2018-03-09T13:44:50.341Z,3304
2018-03-09T13:45:59.605Z,4744
2018-03-09T13:47:08.444Z,5372
2018-03-09T13:48:17.297Z,16640
2018-03-09T13:49:26.135Z,10052
2018-03-09T13:50:34.985Z,6820
2018-03-09T13:51:43.961Z,6000
2018-03-09T13:52:52.796Z,6644
2018-03-09T13:54:01.631Z,6480
2018-03-09T13:55:10.467Z,13680
2018-03-09T13:56:19.301Z,8116
2018-03-09T13:57:28.186Z,9692
2018-03-09T13:58:37.310Z,5812
2018-03-09T13:59:46.692Z,4008
2018-03-09T14:00:55.805Z,4960
2018-03-09T14:02:04.638Z,2944
2018-03-09T14:03:13.522Z,4240
2018-03-09T14:04:22.355Z,3052
2018-03-09T14:05:31.191Z,3308
2018-03-09T14:06:40.317Z,3224
2018-03-09T14:07:49.157Z,2344
2018-03-09T14:08:58.144Z,2348
2018-03-09T14:10:06.978Z,4508
2018-03-09T14:11:15.823Z,5788
2018-03-09T14:12:24.959Z,5732
2018-03-09T14:13:33.787Z,4960
2018-03-09T14:14:42.774Z,4840
2018-03-09T14:15:51.673Z,4556
2018-03-09T14:17:00.520Z,4308
2018-03-09T14:18:09.406Z,4940
2018-03-09T14:19:18.254Z,4596
2018-03-09T14:20:27.377Z,4484
2018-03-09T14:21:36.126Z,4960
2018-03-09T14:22:44.965Z,5800
2018-03-09T14:23:53.809Z,6152
2018-03-09T14:25:02.913Z,6816
2018-03-09T14:26:12.048Z,7736
2018-03-09T14:27:20.887Z,6040
2018-03-09T14:28:29.726Z,4616
2018-03-09T14:29:38.561Z,4152
2018-03-09T14:30:47.396Z,3584
2018-03-09T14:31:56.379Z,3400
2018-03-09T14:33:05.216Z,4164
2018-03-09T14:34:14.051Z,2820
2018-03-09T14:35:22.887Z,2520
2018-03-09T14:36:31.823Z,2700
2018-03-09T14:37:41.064Z,2960
2018-03-09T14:38:49.901Z,3512
2018-03-09T14:39:58.734Z,2968
2018-03-09T14:41:07.569Z,2500
2018-03-09T14:42:16.406Z,2264
2018-03-09T14:43:25.241Z,2104
2018-03-09T14:44:34.074Z,3068
2018-03-09T14:45:42.920Z,9396
2018-03-09T14:46:51.763Z,10556
2018-03-09T14:48:00.614Z,12344
2018-03-09T14:49:09.559Z,10224
2018-03-09T14:50:18.404Z,5872
2018-03-09T14:51:27.245Z,3992
2018-03-09T14:52:36.091Z,3556
2018-03-09T14:53:44.928Z,3364
2018-03-09T14:54:53.915Z,3292
2018-03-09T14:56:02.749Z,3200
2018-03-09T14:57:11.582Z,3184
2018-03-09T14:58:20.415Z,2880
2018-03-09T14:59:29.250Z,2916
2018-03-09T15:00:38.234Z,2664
2018-03-09T15:01:47.072Z,2496
2018-03-09T15:02:55.918Z,2076
2018-03-09T15:04:04.757Z,1760
2018-03-09T15:05:13.592Z,1576
2018-03-09T15:06:22.476Z,1640
2018-03-09T15:07:31.316Z,1700
2018-03-09T15:08:40.152Z,1596
2018-03-09T15:09:49.260Z,1788
2018-03-09T15:10:58.094Z,2148
2018-03-09T15:12:07.079Z,2696
2018-03-09T15:13:15.913Z,2152
2018-03-09T15:14:24.750Z,2196
2018-03-09T15:15:33.581Z,2480
2018-03-09T15:16:42.417Z,2604
2018-03-09T15:17:51.402Z,2448
2018-03-09T15:19:00.240Z,2544
2018-03-09T15:20:09.351Z,3144
2018-03-09T15:21:18.191Z,3548
2018-03-09T15:22:27.018Z,4068
2018-03-09T15:23:35.852Z,4388
2018-03-09T15:24:44.699Z,4376
2018-03-09T15:25:53.531Z,4356
2018-03-09T15:27:02.366Z,4352
2018-03-09T15:28:11.202Z,3764
2018-03-09T15:29:20.375Z,3508
2018-03-09T15:30:29.212Z,3460
2018-03-09T15:31:38.107Z,3280
2018-03-09T15:32:46.955Z,3060
2018-03-09T15:33:55.792Z,3124
2018-03-09T15:35:04.628Z,3136
2018-03-09T15:36:13.465Z,3088
2018-03-09T15:37:22.299Z,2860
2018-03-09T15:38:31.130Z,2420
2018-03-09T15:39:39.965Z,2068
2018-03-09T15:40:48.799Z,1668
2018-03-09T15:41:57.636Z,1400
2018-03-09T15:43:06.474Z,1156
2018-03-09T15:44:15.297Z,1064
2018-03-09T15:45:24.132Z,1068
2018-03-09T15:46:33.354Z,1156
2018-03-09T15:47:42.225Z,1244
2018-03-09T15:48:51.060Z,1256
2018-03-09T15:49:59.894Z,1232
2018-03-09T15:51:08.729Z,1240
2018-03-09T15:52:17.712Z,1228
2018-03-09T15:53:26.545Z,1220